sensor_id;sensor_type;location;lat;lon;timestamp;pressure;altitude;pressure_sealevel;temperature;humidity
6567;BME280;3317;43.994;22.878;2023-06-14T00:00:49;100735.41;;;19.60;76.78
6567;BME280;3317;43.994;22.878;2023-06-14T00:03:18;100743.84;;;19.65;76.59
6567;BME280;3317;43.994;22.878;2023-06-14T00:05:47;100744.72;;;19.65;76.35
6567;BME280;3317;43.994;22.878;2023-06-14T00:08:14;100743.84;;;19.65;76.23
6567;BME280;3317;43.994;22.878;2023-06-14T00:10:43;100746.59;;;19.65;76.12
6567;BME280;3317;43.994;22.878;2023-06-14T00:13:10;100743.03;;;19.64;76.26
6567;BME280;3317;43.994;22.878;2023-06-14T00:15:37;100740.06;;;19.59;76.40
6567;BME280;3317;43.994;22.878;2023-06-14T00:18:04;100736.66;;;19.64;76.42
6567;BME280;3317;43.994;22.878;2023-06-14T00:20:32;100738.78;;;19.62;76.32
6567;BME280;3317;43.994;22.878;2023-06-14T00:23:00;100745.97;;;19.63;76.76
6567;BME280;3317;43.994;22.878;2023-06-14T00:25:27;100728.66;;;19.55;76.85
6567;BME280;3317;43.994;22.878;2023-06-14T00:27:56;100739.66;;;19.62;76.80
6567;BME280;3317;43.994;22.878;2023-06-14T00:30:24;100740.47;;;19.63;77.01
6567;BME280;3317;43.994;22.878;2023-06-14T00:32:56;100698.69;;;19.34;77.15
6567;BME280;3317;43.994;22.878;2023-06-14T00:35:24;100745.16;;;19.62;76.29
6567;BME280;3317;43.994;22.878;2023-06-14T00:37:50;100748.09;;;19.61;75.96
6567;BME280;3317;43.994;22.878;2023-06-14T00:40:20;100742.59;;;19.61;75.88
6567;BME280;3317;43.994;22.878;2023-06-14T00:42:47;100737.31;;;19.59;75.57
6567;BME280;3317;43.994;22.878;2023-06-14T00:45:15;100744.72;;;19.59;75.85
6567;BME280;3317;43.994;22.878;2023-06-14T00:47:43;100743.44;;;19.54;76.05
6567;BME280;3317;43.994;22.878;2023-06-14T00:50:11;100744.31;;;19.55;75.55
6567;BME280;3317;43.994;22.878;2023-06-14T00:52:39;100747.25;;;19.53;75.24
6567;BME280;3317;43.994;22.878;2023-06-14T00:55:07;100747.25;;;19.53;75.47
6567;BME280;3317;43.994;22.878;2023-06-14T00:57:34;100745.56;;;19.52;75.26
6567;BME280;3317;43.994;22.878;2023-06-14T01:00:03;100733.94;;;19.50;75.06
6567;BME280;3317;43.994;22.878;2023-06-14T01:02:36;100735.00;;;19.49;75.52
6567;BME280;3317;43.994;22.878;2023-06-14T01:05:03;100736.94;;;19.49;75.49
6567;BME280;3317;43.994;22.878;2023-06-14T01:07:40;100729.09;;;19.46;75.30
6567;BME280;3317;43.994;22.878;2023-06-14T01:10:21;100727.19;;;19.46;75.13
6567;BME280;3317;43.994;22.878;2023-06-14T01:12:57;100717.66;;;19.42;75.07
6567;BME280;3317;43.994;22.878;2023-06-14T01:15:26;100728.03;;;19.47;75.31
6567;BME280;3317;43.994;22.878;2023-06-14T01:17:56;100715.34;;;19.39;75.40
6567;BME280;3317;43.994;22.878;2023-06-14T01:20:28;100728.25;;;19.45;75.58
6567;BME280;3317;43.994;22.878;2023-06-14T01:22:58;100724.88;;;19.43;75.69
6567;BME280;3317;43.994;22.878;2023-06-14T01:25:25;100718.53;;;19.42;75.23
6567;BME280;3317;43.994;22.878;2023-06-14T01:27:57;100724.03;;;19.42;75.00
6567;BME280;3317;43.994;22.878;2023-06-14T01:30:25;100721.28;;;19.42;74.92
6567;BME280;3317;43.994;22.878;2023-06-14T01:32:54;100715.97;;;19.41;74.65
6567;BME280;3317;43.994;22.878;2023-06-14T01:35:22;100695.31;;;19.32;74.79
6567;BME280;3317;43.994;22.878;2023-06-14T01:37:50;100720.03;;;19.38;75.16
6567;BME280;3317;43.994;22.878;2023-06-14T01:40:19;100720.22;;;19.37;73.82
6567;BME280;3317;43.994;22.878;2023-06-14T01:42:48;100716.00;;;19.34;73.13
6567;BME280;3317;43.994;22.878;2023-06-14T01:45:16;100727.41;;;19.31;73.11
6567;BME280;3317;43.994;22.878;2023-06-14T01:47:44;100720.44;;;19.28;72.80
6567;BME280;3317;43.994;22.878;2023-06-14T01:50:11;100714.72;;;19.30;73.33
6567;BME280;3317;43.994;22.878;2023-06-14T01:52:39;100716.00;;;19.27;73.36
6567;BME280;3317;43.994;22.878;2023-06-14T01:55:06;100726.97;;;19.27;74.24
6567;BME280;3317;43.994;22.878;2023-06-14T01:57:36;100729.09;;;19.25;73.92
6567;BME280;3317;43.994;22.878;2023-06-14T02:00:03;100730.78;;;19.26;73.95
6567;BME280;3317;43.994;22.878;2023-06-14T02:02:31;100739.25;;;19.25;74.50
6567;BME280;3317;43.994;22.878;2023-06-14T02:04:58;100737.56;;;19.24;74.54
6567;BME280;3317;43.994;22.878;2023-06-14T02:07:26;100734.84;;;19.17;74.14
6567;BME280;3317;43.994;22.878;2023-06-14T02:09:53;100740.72;;;19.21;74.39
6567;BME280;3317;43.994;22.878;2023-06-14T02:12:20;100750.25;;;19.18;74.90
6567;BME280;3317;43.994;22.878;2023-06-14T02:14:48;100742.00;;;19.18;75.02
6567;BME280;3317;43.994;22.878;2023-06-14T02:17:15;100740.09;;;19.19;74.24
6567;BME280;3317;43.994;22.878;2023-06-14T02:19:42;100734.16;;;19.08;74.29
6567;BME280;3317;43.994;22.878;2023-06-14T02:22:09;100747.91;;;19.15;73.99
6567;BME280;3317;43.994;22.878;2023-06-14T02:24:36;100734.16;;;19.08;74.28
6567;BME280;3317;43.994;22.878;2023-06-14T02:27:04;100744.53;;;19.13;73.90
6567;BME280;3317;43.994;22.878;2023-06-14T02:29:32;100727.22;;;19.06;73.85
6567;BME280;3317;43.994;22.878;2023-06-14T02:32:00;100743.06;;;19.10;73.93
6567;BME280;3317;43.994;22.878;2023-06-14T02:34:27;100746.00;;;19.09;74.22
6567;BME280;3317;43.994;22.878;2023-06-14T02:36:54;100729.94;;;18.99;74.61
6567;BME280;3317;43.994;22.878;2023-06-14T02:39:21;100747.06;;;19.08;74.75
6567;BME280;3317;43.994;22.878;2023-06-14T02:41:48;100746.44;;;19.06;74.80
6567;BME280;3317;43.994;22.878;2023-06-14T02:44:18;100744.75;;;19.05;75.24
6567;BME280;3317;43.994;22.878;2023-06-14T02:46:45;100754.06;;;19.04;75.82
6567;BME280;3317;43.994;22.878;2023-06-14T02:49:13;100742.22;;;19.03;75.58
6567;BME280;3317;43.994;22.878;2023-06-14T02:51:40;100734.13;;;18.95;75.53
6567;BME280;3317;43.994;22.878;2023-06-14T02:54:07;100746.22;;;19.00;75.22
6567;BME280;3317;43.994;22.878;2023-06-14T02:56:34;100756.53;;;18.98;75.13
6567;BME280;3317;43.994;22.878;2023-06-14T02:59:01;100737.50;;;18.90;75.32
6567;BME280;3317;43.994;22.878;2023-06-14T03:01:29;100741.13;;;18.97;75.21
6567;BME280;3317;43.994;22.878;2023-06-14T03:04:00;100750.41;;;18.96;75.28
6567;BME280;3317;43.994;22.878;2023-06-14T03:06:30;100746.16;;;18.94;75.65
6567;BME280;3317;43.994;22.878;2023-06-14T03:08:57;100733.28;;;18.88;75.51
6567;BME280;3317;43.994;22.878;2023-06-14T03:11:27;100744.28;;;18.88;75.43
6567;BME280;3317;43.994;22.878;2023-06-14T03:13:54;100753.16;;;18.96;75.13
6567;BME280;3317;43.994;22.878;2023-06-14T03:16:21;100751.47;;;18.95;74.62
6567;BME280;3317;43.994;22.878;2023-06-14T03:18:49;100759.69;;;18.95;74.86
6567;BME280;3317;43.994;22.878;2023-06-14T03:21:17;100750.19;;;18.91;74.75
6567;BME280;3317;43.994;22.878;2023-06-14T03:23:46;100760.75;;;18.94;74.08
6567;BME280;3317;43.994;22.878;2023-06-14T03:26:13;100764.75;;;18.92;74.01
6567;BME280;3317;43.994;22.878;2023-06-14T03:28:43;100768.13;;;18.87;73.73
6567;BME280;3317;43.994;22.878;2023-06-14T03:31:10;100772.38;;;18.90;73.32
6567;BME280;3317;43.994;22.878;2023-06-14T03:33:37;100772.38;;;18.90;73.25
6567;BME280;3317;43.994;22.878;2023-06-14T03:36:05;100752.50;;;18.81;72.97
6567;BME280;3317;43.994;22.878;2023-06-14T03:38:33;100750.81;;;18.80;72.84
6567;BME280;3317;43.994;22.878;2023-06-14T03:41:02;100767.50;;;18.85;73.00
6567;BME280;3317;43.994;22.878;2023-06-14T03:43:29;100769.41;;;18.84;73.30
6567;BME280;3317;43.994;22.878;2023-06-14T03:45:56;100769.59;;;18.83;73.28
6567;BME280;3317;43.994;22.878;2023-06-14T03:48:23;100768.56;;;18.84;73.41
6567;BME280;3317;43.994;22.878;2023-06-14T03:50:51;100767.69;;;18.83;73.60
6567;BME280;3317;43.994;22.878;2023-06-14T03:53:18;100769.59;;;18.83;73.73
6567;BME280;3317;43.994;22.878;2023-06-14T03:55:45;100768.56;;;18.84;73.29
6567;BME280;3317;43.994;22.878;2023-06-14T03:58:15;100774.91;;;18.84;73.77
6567;BME280;3317;43.994;22.878;2023-06-14T04:00:42;100772.97;;;18.85;74.03
6567;BME280;3317;43.994;22.878;2023-06-14T04:03:10;100772.97;;;18.85;74.21
6567;BME280;3317;43.994;22.878;2023-06-14T04:05:38;100772.78;;;18.86;73.86
6567;BME280;3317;43.994;22.878;2023-06-14T04:08:07;100776.38;;;18.87;73.64
6567;BME280;3317;43.994;22.878;2023-06-14T04:10:34;100759.88;;;18.80;73.77
6567;BME280;3317;43.994;22.878;2023-06-14T04:13:01;100768.75;;;18.89;73.85
6567;BME280;3317;43.994;22.878;2023-06-14T04:15:29;100769.00;;;18.88;74.17
6567;BME280;3317;43.994;22.878;2023-06-14T04:17:56;100767.50;;;18.92;74.29
6567;BME280;3317;43.994;22.878;2023-06-14T04:20:23;100761.59;;;18.88;74.81
6567;BME280;3317;43.994;22.878;2023-06-14T04:22:51;100762.22;;;18.90;74.57
6567;BME280;3317;43.994;22.878;2023-06-14T04:25:19;100771.75;;;18.94;74.57
6567;BME280;3317;43.994;22.878;2023-06-14T04:27:46;100774.53;;;19.01;74.42
6567;BME280;3317;43.994;22.878;2023-06-14T04:30:13;100771.56;;;19.03;74.18
6567;BME280;3317;43.994;22.878;2023-06-14T04:32:42;100768.63;;;19.04;74.19
6567;BME280;3317;43.994;22.878;2023-06-14T04:35:09;100770.53;;;19.04;74.32
6567;BME280;3317;43.994;22.878;2023-06-14T04:37:36;100777.47;;;19.06;74.52
6567;BME280;3317;43.994;22.878;2023-06-14T04:40:10;100781.09;;;19.07;74.55
6567;BME280;3317;43.994;22.878;2023-06-14T04:42:37;100788.69;;;19.11;74.95
6567;BME280;3317;43.994;22.878;2023-06-14T04:45:08;100792.09;;;19.13;74.32
6567;BME280;3317;43.994;22.878;2023-06-14T04:47:35;100799.25;;;19.14;74.25
6567;BME280;3317;43.994;22.878;2023-06-14T04:50:04;100796.28;;;19.16;74.02
6567;BME280;3317;43.994;22.878;2023-06-14T04:52:31;100791.84;;;19.15;74.03
6567;BME280;3317;43.994;22.878;2023-06-14T04:55:01;100794.41;;;19.17;73.74
6567;BME280;3317;43.994;22.878;2023-06-14T04:57:30;100790.16;;;19.14;73.75
6567;BME280;3317;43.994;22.878;2023-06-14T04:59:57;100796.72;;;19.20;73.47
6567;BME280;3317;43.994;22.878;2023-06-14T05:02:26;100797.59;;;19.20;73.50
6567;BME280;3317;43.994;22.878;2023-06-14T05:04:54;100792.53;;;19.24;73.27
6567;BME280;3317;43.994;22.878;2023-06-14T05:07:23;100795.03;;;19.25;73.63
6567;BME280;3317;43.994;22.878;2023-06-14T05:09:50;100793.78;;;19.28;73.16
6567;BME280;3317;43.994;22.878;2023-06-14T05:12:17;100790.84;;;19.30;73.65
6567;BME280;3317;43.994;22.878;2023-06-14T05:14:45;100802.22;;;19.33;73.70
6567;BME280;3317;43.994;22.878;2023-06-14T05:17:12;100808.16;;;19.37;73.79
6567;BME280;3317;43.994;22.878;2023-06-14T05:19:40;100799.91;;;19.37;73.93
6567;BME280;3317;43.994;22.878;2023-06-14T05:22:06;100799.72;;;19.38;74.04
6567;BME280;3317;43.994;22.878;2023-06-14T05:24:35;100808.56;;;19.47;74.11
6567;BME280;3317;43.994;22.878;2023-06-14T05:27:02;100811.13;;;19.55;73.72
6567;BME280;3317;43.994;22.878;2023-06-14T05:29:29;100820.19;;;19.63;74.07
6567;BME280;3317;43.994;22.878;2023-06-14T05:31:56;100823.78;;;19.70;73.83
6567;BME280;3317;43.994;22.878;2023-06-14T05:34:23;100808.13;;;19.64;73.90
6567;BME280;3317;43.994;22.878;2023-06-14T05:36:50;100830.97;;;19.84;73.80
6567;BME280;3317;43.994;22.878;2023-06-14T05:39:17;100831.63;;;19.93;73.62
6567;BME280;3317;43.994;22.878;2023-06-14T05:41:45;100815.28;;;19.92;73.74
6567;BME280;3317;43.994;22.878;2023-06-14T05:44:12;100835.59;;;20.11;73.79
6567;BME280;3317;43.994;22.878;2023-06-14T05:46:39;100829.25;;;20.17;73.40
6567;BME280;3317;43.994;22.878;2023-06-14T05:49:06;100832.16;;;20.29;72.99
6567;BME280;3317;43.994;22.878;2023-06-14T05:51:34;100831.69;;;20.39;73.04
6567;BME280;3317;43.994;22.878;2023-06-14T05:54:01;100835.06;;;20.48;72.81
6567;BME280;3317;43.994;22.878;2023-06-14T05:56:28;100832.06;;;20.56;72.64
6567;BME280;3317;43.994;22.878;2023-06-14T05:58:56;100835.00;;;20.68;72.24
6567;BME280;3317;43.994;22.878;2023-06-14T06:01:23;100836.19;;;20.79;72.22
6567;BME280;3317;43.994;22.878;2023-06-14T06:03:50;100834.06;;;20.88;71.85
6567;BME280;3317;43.994;22.878;2023-06-14T06:06:17;100836.13;;;20.99;71.28
6567;BME280;3317;43.994;22.878;2023-06-14T06:08:44;100838.38;;;21.09;71.22
6567;BME280;3317;43.994;22.878;2023-06-14T06:11:11;100839.34;;;21.21;71.27
6567;BME280;3317;43.994;22.878;2023-06-14T06:13:38;100834.44;;;21.30;71.46
6567;BME280;3317;43.994;22.878;2023-06-14T06:16:07;100832.00;;;21.41;70.97
6567;BME280;3317;43.994;22.878;2023-06-14T06:18:34;100819.66;;;21.50;70.79
6567;BME280;3317;43.994;22.878;2023-06-14T06:21:03;100823.13;;;21.71;70.94
6567;BME280;3317;43.994;22.878;2023-06-14T06:23:30;100831.88;;;21.86;70.78
6567;BME280;3317;43.994;22.878;2023-06-14T06:25:57;100827.69;;;22.02;70.50
6567;BME280;3317;43.994;22.878;2023-06-14T06:28:24;100830.44;;;22.21;70.53
6567;BME280;3317;43.994;22.878;2023-06-14T06:30:50;100819.63;;;22.38;69.79
6567;BME280;3317;43.994;22.878;2023-06-14T06:33:20;100832.44;;;22.70;69.17
6567;BME280;3317;43.994;22.878;2023-06-14T06:35:47;100839.59;;;22.89;69.16
6567;BME280;3317;43.994;22.878;2023-06-14T06:38:14;100829.94;;;23.11;68.39
6567;BME280;3317;43.994;22.878;2023-06-14T06:40:41;100826.94;;;23.31;67.05
6567;BME280;3317;43.994;22.878;2023-06-14T06:43:08;100832.47;;;23.55;66.60
6567;BME280;3317;43.994;22.878;2023-06-14T06:45:34;100833.81;;;23.76;65.93
6567;BME280;3317;43.994;22.878;2023-06-14T06:48:02;100839.09;;;24.01;65.43
6567;BME280;3317;43.994;22.878;2023-06-14T06:50:30;100842.25;;;24.17;64.07
6567;BME280;3317;43.994;22.878;2023-06-14T06:52:57;100837.03;;;24.32;62.25
6567;BME280;3317;43.994;22.878;2023-06-14T06:55:24;100841.72;;;24.44;61.43
6567;BME280;3317;43.994;22.878;2023-06-14T06:57:51;100837.09;;;24.61;61.38
6567;BME280;3317;43.994;22.878;2023-06-14T07:00:19;100829.84;;;24.72;61.30
6567;BME280;3317;43.994;22.878;2023-06-14T07:02:47;100836.28;;;24.90;60.68
6567;BME280;3317;43.994;22.878;2023-06-14T07:05:14;100838.91;;;24.97;59.20
6567;BME280;3317;43.994;22.878;2023-06-14T07:07:42;100839.97;;;25.08;59.20
6567;BME280;3317;43.994;22.878;2023-06-14T07:10:09;100843.41;;;25.15;58.23
6567;BME280;3317;43.994;22.878;2023-06-14T07:12:36;100787.25;;;24.91;58.05
6567;BME280;3317;43.994;22.878;2023-06-14T07:15:06;100836.44;;;25.29;57.88
6567;BME280;3317;43.994;22.878;2023-06-14T07:17:34;100840.16;;;25.35;58.07
6567;BME280;3317;43.994;22.878;2023-06-14T07:20:02;100833.03;;;25.39;57.35
6567;BME280;3317;43.994;22.878;2023-06-14T07:22:38;100840.09;;;25.47;57.50
6567;BME280;3317;43.994;22.878;2023-06-14T07:25:08;100835.34;;;25.48;56.79
6567;BME280;3317;43.994;22.878;2023-06-14T07:27:35;100843.19;;;25.51;56.99
6567;BME280;3317;43.994;22.878;2023-06-14T07:30:02;100793.91;;;25.24;56.41
6567;BME280;3317;43.994;22.878;2023-06-14T07:32:30;100840.53;;;25.56;56.37
6567;BME280;3317;43.994;22.878;2023-06-14T07:34:57;100844.47;;;25.60;56.52
6567;BME280;3317;43.994;22.878;2023-06-14T07:37:24;100843.38;;;25.61;55.89
6567;BME280;3317;43.994;22.878;2023-06-14T07:39:51;100851.63;;;25.56;55.10
6567;BME280;3317;43.994;22.878;2023-06-14T07:42:19;100848.66;;;25.45;55.08
6567;BME280;3317;43.994;22.878;2023-06-14T07:44:46;100843.06;;;25.28;54.97
6567;BME280;3317;43.994;22.878;2023-06-14T07:47:13;100853.16;;;25.17;55.09
6567;BME280;3317;43.994;22.878;2023-06-14T07:49:40;100858.16;;;25.03;55.69
6567;BME280;3317;43.994;22.878;2023-06-14T07:52:07;100866.53;;;24.92;56.52
6567;BME280;3317;43.994;22.878;2023-06-14T07:54:34;100860.19;;;24.79;56.49
6567;BME280;3317;43.994;22.878;2023-06-14T07:57:01;100871.75;;;24.64;57.40
6567;BME280;3317;43.994;22.878;2023-06-14T07:59:29;100876.13;;;24.60;57.30
6567;BME280;3317;43.994;22.878;2023-06-14T08:01:56;100883.13;;;24.63;58.05
6567;BME280;3317;43.994;22.878;2023-06-14T08:04:23;100886.34;;;24.59;58.09
6567;BME280;3317;43.994;22.878;2023-06-14T08:06:50;100883.47;;;24.54;58.57
6567;BME280;3317;43.994;22.878;2023-06-14T08:09:17;100882.75;;;24.47;58.83
6567;BME280;3317;43.994;22.878;2023-06-14T08:11:44;100884.25;;;24.38;59.02
6567;BME280;3317;43.994;22.878;2023-06-14T08:14:11;100891.09;;;24.35;59.63
6567;BME280;3317;43.994;22.878;2023-06-14T08:16:40;100899.06;;;24.19;59.51
6567;BME280;3317;43.994;22.878;2023-06-14T08:19:08;100896.16;;;24.14;59.87
6567;BME280;3317;43.994;22.878;2023-06-14T08:21:34;100896.41;;;24.13;60.39
6567;BME280;3317;43.994;22.878;2023-06-14T08:24:02;100890.75;;;24.08;60.46
6567;BME280;3317;43.994;22.878;2023-06-14T08:26:29;100899.31;;;24.06;61.06
6567;BME280;3317;43.994;22.878;2023-06-14T08:28:57;100897.47;;;24.00;61.09
6567;BME280;3317;43.994;22.878;2023-06-14T08:31:24;100896.97;;;23.91;61.05
6567;BME280;3317;43.994;22.878;2023-06-14T08:33:52;100898.06;;;23.78;61.26
6567;BME280;3317;43.994;22.878;2023-06-14T08:36:19;100905.84;;;23.69;62.02
6567;BME280;3317;43.994;22.878;2023-06-14T08:38:48;100905.72;;;23.64;61.78
6567;BME280;3317;43.994;22.878;2023-06-14T08:41:20;100902.09;;;23.52;62.26
6567;BME280;3317;43.994;22.878;2023-06-14T08:43:47;100903.97;;;23.39;62.48
6567;BME280;3317;43.994;22.878;2023-06-14T08:46:17;100904.84;;;23.40;62.73
6567;BME280;3317;43.994;22.878;2023-06-14T08:48:46;100903.84;;;23.34;62.88
6567;BME280;3317;43.994;22.878;2023-06-14T08:51:18;100909.38;;;23.34;62.88
6567;BME280;3317;43.994;22.878;2023-06-14T08:53:51;100914.44;;;23.37;62.96
6567;BME280;3317;43.994;22.878;2023-06-14T08:56:19;100838.41;;;22.97;63.59
6567;BME280;3317;43.994;22.878;2023-06-14T08:58:48;100897.63;;;23.20;62.79
6567;BME280;3317;43.994;22.878;2023-06-14T09:01:16;100907.78;;;23.26;62.91
6567;BME280;3317;43.994;22.878;2023-06-14T09:03:43;100909.00;;;23.30;63.18
6567;BME280;3317;43.994;22.878;2023-06-14T09:06:10;100916.97;;;23.39;63.35
6567;BME280;3317;43.994;22.878;2023-06-14T09:08:42;100911.34;;;23.45;63.52
6567;BME280;3317;43.994;22.878;2023-06-14T09:11:11;100918.47;;;23.53;63.29
6567;BME280;3317;43.994;22.878;2023-06-14T09:13:40;100911.38;;;23.57;63.27
6567;BME280;3317;43.994;22.878;2023-06-14T09:16:08;100915.00;;;23.58;63.45
6567;BME280;3317;43.994;22.878;2023-06-14T09:18:36;100919.06;;;23.67;62.85
6567;BME280;3317;43.994;22.878;2023-06-14T09:21:05;100922.44;;;23.69;62.80
6567;BME280;3317;43.994;22.878;2023-06-14T09:23:36;100923.69;;;23.73;62.80
6567;BME280;3317;43.994;22.878;2023-06-14T09:26:08;100924.28;;;23.75;63.02
6567;BME280;3317;43.994;22.878;2023-06-14T09:28:37;100925.25;;;23.81;62.50
6567;BME280;3317;43.994;22.878;2023-06-14T09:31:07;100928.25;;;23.80;62.24
6567;BME280;3317;43.994;22.878;2023-06-14T09:33:35;100921.88;;;23.79;62.66
6567;BME280;3317;43.994;22.878;2023-06-14T09:36:03;100920.78;;;23.80;62.93
6567;BME280;3317;43.994;22.878;2023-06-14T09:38:30;100921.63;;;23.81;62.87
6567;BME280;3317;43.994;22.878;2023-06-14T09:40:58;100919.72;;;23.81;62.81
6567;BME280;3317;43.994;22.878;2023-06-14T09:43:27;100915.00;;;23.82;62.52
6567;BME280;3317;43.994;22.878;2023-06-14T09:45:55;100915.88;;;23.82;62.75
6567;BME280;3317;43.994;22.878;2023-06-14T09:48:22;100914.19;;;23.81;62.96
6567;BME280;3317;43.994;22.878;2023-06-14T09:50:50;100895.41;;;23.71;62.46
6567;BME280;3317;43.994;22.878;2023-06-14T09:53:21;100906.47;;;23.83;62.32
6567;BME280;3317;43.994;22.878;2023-06-14T09:55:49;100905.16;;;23.86;62.67
6567;BME280;3317;43.994;22.878;2023-06-14T09:58:20;100912.13;;;23.88;62.69
6567;BME280;3317;43.994;22.878;2023-06-14T10:00:51;100909.25;;;23.95;62.79
6567;BME280;3317;43.994;22.878;2023-06-14T10:03:21;100912.56;;;24.04;62.79
6567;BME280;3317;43.994;22.878;2023-06-14T10:05:51;100914.47;;;24.15;62.78
6567;BME280;3317;43.994;22.878;2023-06-14T10:08:19;100896.78;;;24.16;63.02
6567;BME280;3317;43.994;22.878;2023-06-14T10:10:51;100908.31;;;24.37;62.46
6567;BME280;3317;43.994;22.878;2023-06-14T10:13:18;100901.91;;;24.49;62.01
6567;BME280;3317;43.994;22.878;2023-06-14T10:15:55;100899.00;;;24.67;61.67
6567;BME280;3317;43.994;22.878;2023-06-14T10:18:32;100898.50;;;24.82;61.36
6567;BME280;3317;43.994;22.878;2023-06-14T10:21:05;100891.09;;;25.00;61.84
6567;BME280;3317;43.994;22.878;2023-06-14T10:23:37;100890.28;;;25.16;61.03
6567;BME280;3317;43.994;22.878;2023-06-14T10:26:08;100895.03;;;25.33;59.63
6567;BME280;3317;43.994;22.878;2023-06-14T10:28:37;100896.78;;;25.51;59.48
6567;BME280;3317;43.994;22.878;2023-06-14T10:31:07;100874.56;;;25.51;58.64
6567;BME280;3317;43.994;22.878;2023-06-14T10:33:34;100893.91;;;25.80;58.33
6567;BME280;3317;43.994;22.878;2023-06-14T10:36:25;100893.25;;;25.90;57.23
6567;BME280;3317;43.994;22.878;2023-06-14T10:39:00;100893.41;;;26.00;57.01
6567;BME280;3317;43.994;22.878;2023-06-14T10:41:28;100892.22;;;26.13;56.63
6567;BME280;3317;43.994;22.878;2023-06-14T10:47:27;100872.06;;;26.40;55.54
6567;BME280;3317;43.994;22.878;2023-06-14T10:49:56;100869.91;;;26.48;54.88
6567;BME280;3317;43.994;22.878;2023-06-14T10:52:27;100875.88;;;26.56;54.94
6567;BME280;3317;43.994;22.878;2023-06-14T10:55:08;100872.59;;;26.60;54.28
6567;BME280;3317;43.994;22.878;2023-06-14T10:57:38;100862.63;;;26.64;54.23
6567;BME280;3317;43.994;22.878;2023-06-14T11:00:06;100871.22;;;26.84;53.82
6567;BME280;3317;43.994;22.878;2023-06-14T11:03:02;100872.97;;;26.91;52.35
6567;BME280;3317;43.994;22.878;2023-06-14T11:05:48;100853.00;;;26.94;52.42
6567;BME280;3317;43.994;22.878;2023-06-14T11:08:27;100864.59;;;27.13;52.65
6567;BME280;3317;43.994;22.878;2023-06-14T11:11:06;100851.16;;;27.32;52.95
6567;BME280;3317;43.994;22.878;2023-06-14T11:13:33;100850.72;;;27.46;53.60
6567;BME280;3317;43.994;22.878;2023-06-14T11:16:00;100844.44;;;27.55;52.35
6567;BME280;3317;43.994;22.878;2023-06-14T11:18:29;100850.91;;;27.66;51.37
6567;BME280;3317;43.994;22.878;2023-06-14T11:20:56;100836.22;;;27.76;51.66
6567;BME280;3317;43.994;22.878;2023-06-14T11:23:23;100825.63;;;27.73;49.47
6567;BME280;3317;43.994;22.878;2023-06-14T11:25:51;100817.66;;;27.87;52.46
6567;BME280;3317;43.994;22.878;2023-06-14T11:28:18;100832.53;;;28.14;51.35
6567;BME280;3317;43.994;22.878;2023-06-14T11:30:47;100837.41;;;28.34;52.23
6567;BME280;3317;43.994;22.878;2023-06-14T11:33:17;100824.66;;;28.48;50.66
6567;BME280;3317;43.994;22.878;2023-06-14T11:35:46;100815.50;;;28.63;49.37
6567;BME280;3317;43.994;22.878;2023-06-14T11:38:13;100822.28;;;28.83;49.12
6567;BME280;3317;43.994;22.878;2023-06-14T11:40:40;100813.63;;;28.85;47.49
6567;BME280;3317;43.994;22.878;2023-06-14T11:43:07;100811.16;;;28.88;46.26
6567;BME280;3317;43.994;22.878;2023-06-14T11:45:35;100772.31;;;28.71;47.31
6567;BME280;3317;43.994;22.878;2023-06-14T11:48:02;100781.22;;;28.73;45.75
6567;BME280;3317;43.994;22.878;2023-06-14T11:50:30;100817.56;;;28.94;47.08
6567;BME280;3317;43.994;22.878;2023-06-14T11:53:00;100815.38;;;29.17;48.46
6567;BME280;3317;43.994;22.878;2023-06-14T11:55:32;100810.91;;;29.16;46.13
6567;BME280;3317;43.994;22.878;2023-06-14T11:58:02;100813.69;;;29.42;48.21
6567;BME280;3317;43.994;22.878;2023-06-14T12:00:29;100808.09;;;29.36;44.03
6567;BME280;3317;43.994;22.878;2023-06-14T12:02:57;100795.56;;;29.39;45.81
6567;BME280;3317;43.994;22.878;2023-06-14T12:05:25;100799.22;;;29.55;45.09
6567;BME280;3317;43.994;22.878;2023-06-14T12:07:59;100806.16;;;29.73;45.26
6567;BME280;3317;43.994;22.878;2023-06-14T12:10:27;100809.78;;;29.79;44.03
6567;BME280;3317;43.994;22.878;2023-06-14T12:12:57;100760.41;;;29.33;43.97
6567;BME280;3317;43.994;22.878;2023-06-14T12:15:27;100796.16;;;29.46;42.87
6567;BME280;3317;43.994;22.878;2023-06-14T12:17:54;100808.66;;;29.33;44.29
6567;BME280;3317;43.994;22.878;2023-06-14T12:20:21;100801.44;;;29.27;44.45
6567;BME280;3317;43.994;22.878;2023-06-14T12:22:52;100805.06;;;29.48;45.12
6567;BME280;3317;43.994;22.878;2023-06-14T12:25:31;100796.94;;;29.62;44.61
6567;BME280;3317;43.994;22.878;2023-06-14T12:27:59;100792.75;;;29.75;45.07
6567;BME280;3317;43.994;22.878;2023-06-14T12:30:30;100793.84;;;29.90;43.78
6567;BME280;3317;43.994;22.878;2023-06-14T12:32:57;100793.63;;;29.65;43.50
6567;BME280;3317;43.994;22.878;2023-06-14T12:35:24;100795.81;;;29.74;44.78
6567;BME280;3317;43.994;22.878;2023-06-14T12:37:50;100784.66;;;29.63;43.70
6567;BME280;3317;43.994;22.878;2023-06-14T12:40:18;100788.28;;;29.69;44.67
6567;BME280;3317;43.994;22.878;2023-06-14T12:42:46;100790.25;;;29.63;43.68
6567;BME280;3317;43.994;22.878;2023-06-14T12:45:13;100787.44;;;29.79;45.19
6567;BME280;3317;43.994;22.878;2023-06-14T12:47:40;100783.25;;;29.76;45.35
6567;BME280;3317;43.994;22.878;2023-06-14T12:50:08;100765.41;;;29.67;44.82
6567;BME280;3317;43.994;22.878;2023-06-14T12:52:35;100767.91;;;29.74;45.36
6567;BME280;3317;43.994;22.878;2023-06-14T12:55:03;100762.91;;;29.60;43.96
6567;BME280;3317;43.994;22.878;2023-06-14T12:57:30;100764.03;;;29.59;44.58
6567;BME280;3317;43.994;22.878;2023-06-14T12:59:59;100752.31;;;29.31;43.39
6567;BME280;3317;43.994;22.878;2023-06-14T13:02:27;100741.13;;;28.79;44.71
6567;BME280;3317;43.994;22.878;2023-06-14T13:04:54;100743.25;;;28.41;46.22
6567;BME280;3317;43.994;22.878;2023-06-14T13:07:22;100722.13;;;27.81;46.88
6567;BME280;3317;43.994;22.878;2023-06-14T13:09:49;100740.09;;;27.63;47.73